Airfield :
LOGIN :

Register | Disclaimer

   EN    FR    IT 

 










Legend :    VFR   Marginal VFR   IFR   Intensive IFR   Very Intensive IFR
Visi :
Ceiling :
>= 8 km
>= 3000ft
5 to 8 km
1000 to 3000 ft
1500m to 5 km
500 to 1000 ft
800 to 1500m
200 to 500 ft
< 800m
< 200 ft
Symbols :   Thunderstorms  Fog  Heavy snow  Heavy precipitations  Wind > 20 kt
SIGMETs :     Misc.  Thunderstorms  Icing  Turbulence  Mountain Waves  Volcanic Ashes







- Airport Elevation : 37 ft
- IATA code : OLB


LIEO - Olbia Costa Smeralda

CURRENT METAR :
  • 141450Z 30011KT 260V340 9999 FEW020 SCT030 31/15 Q1012

EXPIRED METARs :
  • 141420Z 30012KT 260V330 9999 FEW020 SCT030 31/16 Q1012
  • 141350Z 31013KT 270V340 9999 FEW020 SCT030 32/17 Q1011
  • 141320Z 28012KT 260V320 9999 FEW020 SCT030 31/16 Q1012
  • 141250Z 27015KT 9999 FEW020 SCT030 32/16 Q1012
  • 141220Z 27016KT 240V300 9999 FEW020 SCT030 32/17 Q1012

TAF TAF LIEO
Valid from the 14 at 12:00 until the 15 at 12:00 UTC


141100Z 1412/1512 25012KT 9999 SCT030
TEMPO 1412/1416 4000 TSRA
BECMG 1418/1420 VRB06KT
No reported NOTAMs for that airfield.
1 SIGMET reported for the Roma FIR (LIRR) :
 
Embedded thunderstorms
LIRR SIGMET 9 VALID 141407/141530 LIIB
LIRR ROMA FIR EMBD TS FCST WI N4215 E01230 - N4137 E01149 - N4122 E00946 - N4116 E00822 - N4057 E00757 - N3858 E00801 - N3845 E01508 - N3907 E01618 - N4110 E01510 - N4125 E01421 - N4230 E01325 - N4222 E01301 - N4215 E01230 TOP ABV FL330 MOV SE NC=



MET'MAP, your aeronautical weather chart ! - Copyright ORBIFLY December 2007 - Disclaimer

ORBIFLY MET'MAP TEAM :

Programming & Development : Alexandra Zaïnal
Concept & Development : Baudouin d'Aumeries
Co-Development & Prog : Marc-Olivier Méhu
Technical & hardware support : Manuel Goepfert

Contact : metmap@orbifly.com




SOURCES & CREDITS :

   NOAA